Time;durP1;ratioP1;P1;durP2;ratioP2;P2;SDS_P1;SDS_P2;PMS_P1;PMS_P2;Temp;Humidity;BMP_temperature;BMP_pressure;BME280_temperature;BME280_humidity;BME280_pressure;Samples;Min_cycle;Max_cycle;Signal;HPM_P1;HPM_P2
2021/09/04 00:01:22;;;;;;;10.73;6.73;;;;;;;15.39;66.98;100541.28;1405821;87;22277;-90
2021/09/04 00:03:49;;;;;;;7.43;5.43;;;;;;;15.41;66.85;100537.12;1406993;87;21264;-90
2021/09/04 00:06:15;;;;;;;13.53;6.47;;;;;;;15.41;66.76;100549.13;1413277;86;21449;-90
2021/09/04 00:08:42;;;;;;;8.70;5.43;;;;;;;15.39;66.62;100545.28;1405653;87;21368;-89
2021/09/04 00:11:08;;;;;;;9.10;6.57;;;;;;;15.37;66.63;100543.83;1405741;87;21444;-89
2021/09/04 00:13:34;;;;;;;7.83;5.90;;;;;;;15.37;66.60;100544.66;1405548;87;21382;-89
2021/09/04 00:16:01;;;;;;;9.27;6.83;;;;;;;15.33;66.74;100543.33;1405518;87;21242;-90
2021/09/04 00:18:30;;;;;;;7.53;5.30;;;;;;;15.31;67.04;100542.70;1405744;87;21374;-87
2021/09/04 00:20:55;;;;;;;8.00;5.47;;;;;;;15.32;67.31;100548.34;1405060;87;21507;-87
2021/09/04 00:23:21;;;;;;;10.57;6.13;;;;;;;15.33;67.52;100549.52;1405719;87;22233;-87
2021/09/04 00:25:47;;;;;;;8.97;5.80;;;;;;;15.35;67.18;100546.66;1405362;88;21453;-88
2021/09/04 00:28:13;;;;;;;9.47;6.13;;;;;;;15.37;66.98;100549.16;1404889;88;21279;-89
2021/09/04 00:30:39;;;;;;;9.17;6.33;;;;;;;15.37;66.98;100549.16;1405748;87;22779;-88
2021/09/04 00:33:06;;;;;;;7.93;5.43;;;;;;;15.34;66.96;100548.50;1405570;87;21287;-89
2021/09/04 00:35:32;;;;;;;9.70;7.37;;;;;;;15.33;66.92;100548.66;1405363;87;21412;-89
2021/09/04 00:37:58;;;;;;;10.10;5.90;;;;;;;15.29;67.02;100538.03;1405593;87;21323;-89
2021/09/04 00:40:24;;;;;;;11.10;7.03;;;;;;;15.27;67.14;100536.86;1405557;87;21637;-89
2021/09/04 00:42:50;;;;;;;7.87;6.23;;;;;;;15.22;67.57;100537.05;1405792;87;21279;-88
2021/09/04 00:45:17;;;;;;;16.00;6.40;;;;;;;15.20;67.92;100539.91;1405299;88;21256;-89
2021/09/04 00:48:01;;;;;;;9.77;5.90;;;;;;;15.18;68.19;100540.58;1405987;87;21523;-89
2021/09/04 00:50:30;;;;;;;7.43;5.83;;;;;;;15.18;68.14;100537.91;1405178;88;21390;-89
2021/09/04 00:52:59;;;;;;;8.43;6.63;;;;;;;15.16;67.90;100539.91;1405611;87;21360;-91
2021/09/04 00:55:27;;;;;;;15.67;5.83;;;;;;;15.13;67.84;100540.27;1405767;87;21360;-88
2021/09/04 00:57:53;;;;;;;8.67;6.50;;;;;;;15.09;68.02;100536.30;1405402;88;22314;-87
2021/09/04 01:00:20;;;;;;;8.33;5.83;;;;;;;15.03;68.02;100538.34;1405584;87;21257;-88
2021/09/04 01:02:47;;;;;;;9.47;6.20;;;;;;;14.98;68.19;100536.18;1405768;87;21308;-89
2021/09/04 01:05:13;;;;;;;10.57;6.03;;;;;;;14.97;68.32;100540.37;1405643;87;22369;-87
2021/09/04 01:07:39;;;;;;;7.67;5.70;;;;;;;14.97;68.53;100545.70;1406121;87;21361;-86
2021/09/04 01:10:08;;;;;;;10.63;7.07;;;;;;;14.96;68.76;100538.69;1393149;88;21353;-86
2021/09/04 01:12:35;;;;;;;8.70;6.13;;;;;;;14.95;68.57;100538.37;1405793;87;21323;-88
2021/09/04 01:15:02;;;;;;;9.30;5.87;;;;;;;14.94;68.46;100540.20;1409140;88;22092;-88
2021/09/04 01:17:28;;;;;;;9.20;5.80;;;;;;;14.90;68.65;100540.20;1425825;86;21264;-88
2021/09/04 01:19:55;;;;;;;9.63;6.30;;;;;;;14.83;68.96;100540.08;1426009;86;21354;-88
2021/09/04 01:22:21;;;;;;;12.97;6.20;;;;;;;14.75;69.07;100545.43;1412384;87;21272;-88
2021/09/04 01:24:50;;;;;;;9.03;6.13;;;;;;;14.70;69.25;100552.27;1425760;86;21308;-87
2021/09/04 01:27:18;;;;;;;9.30;6.00;;;;;;;14.63;69.70;100552.96;1426135;85;21286;-87
2021/09/04 01:29:46;;;;;;;7.63;5.00;;;;;;;14.60;70.12;100541.32;1426060;86;21300;-86
2021/09/04 01:32:12;;;;;;;8.93;6.53;;;;;;;14.61;70.15;100541.64;1413465;87;22643;-85
2021/09/04 01:34:38;;;;;;;7.87;5.90;;;;;;;14.60;70.11;100545.82;1425498;86;21294;-87
2021/09/04 01:37:05;;;;;;;9.73;5.47;;;;;;;14.56;69.94;100542.67;1426569;86;21271;-87
2021/09/04 01:39:31;;;;;;;8.40;5.37;;;;;;;14.52;69.95;100541.84;1426333;86;21272;-87
2021/09/04 01:41:57;;;;;;;8.00;5.90;;;;;;;14.46;69.90;100549.98;1371787;90;22322;-87
2021/09/04 01:44:23;;;;;;;8.93;6.27;;;;;;;14.39;70.62;100548.50;1425930;86;21360;-87
2021/09/04 01:46:50;;;;;;;8.83;5.33;;;;;;;14.33;71.23;100548.36;1425856;86;21466;-87
2021/09/04 01:49:18;;;;;;;7.57;4.87;;;;;;;14.30;71.33;100545.53;1372314;89;21376;-87
2021/09/04 01:51:46;;;;;;;9.77;6.33;;;;;;;14.29;71.48;100541.19;1383866;88;22257;-87
2021/09/04 01:54:13;;;;;;;10.33;5.10;;;;;;;14.28;71.42;100533.38;1372472;89;21309;-88
2021/09/04 01:56:40;;;;;;;13.80;6.00;;;;;;;14.23;71.83;100539.20;1383911;88;21288;-87
2021/09/04 01:59:07;;;;;;;8.07;5.20;;;;;;;14.16;72.46;100538.23;1371957;88;22181;-87
2021/09/04 02:01:35;;;;;;;8.83;5.03;;;;;;;14.13;72.22;100536.73;1371662;89;21391;-86
2021/09/04 02:04:02;;;;;;;10.73;5.63;;;;;;;14.13;72.33;100532.73;1371982;90;21376;-86
2021/09/04 02:06:29;;;;;;;8.67;6.17;;;;;;;14.14;72.30;100528.24;1390942;87;22284;-86
2021/09/04 02:08:56;;;;;;;10.47;6.13;;;;;;;14.14;72.17;100526.91;1384359;88;21332;-86
2021/09/04 02:11:23;;;;;;;8.03;4.93;;;;;;;14.14;72.58;100524.25;1372161;89;21393;-86
2021/09/04 02:13:50;;;;;;;10.17;5.80;;;;;;;14.07;73.08;100521.44;1384055;88;21280;-86
2021/09/04 02:16:18;;;;;;;9.93;5.87;;;;;;;14.03;73.25;100523.27;1361032;90;21302;-86
2021/09/04 02:18:45;;;;;;;8.23;5.43;;;;;;;13.97;73.68;100525.58;1391120;88;21316;-86
2021/09/04 02:21:12;;;;;;;9.03;5.80;;;;;;;13.93;73.43;100524.27;1384026;88;21660;-86
2021/09/04 02:23:40;;;;;;;9.10;5.53;;;;;;;13.89;73.60;100524.25;1371902;90;22233;-86
2021/09/04 02:26:08;;;;;;;10.33;6.20;;;;;;;13.87;73.57;100524.94;1390828;87;22256;-87
2021/09/04 02:28:35;;;;;;;9.53;4.97;;;;;;;13.85;73.55;100521.61;1423051;86;21703;-86
2021/09/04 02:31:02;;;;;;;12.07;5.17;;;;;;;13.81;73.88;100521.63;1423229;85;21344;-86
2021/09/04 02:33:29;;;;;;;9.27;5.33;;;;;;;13.79;73.94;100521.45;1422922;86;22151;-87
2021/09/04 02:35:56;;;;;;;10.03;6.47;;;;;;;13.74;74.51;100520.61;1423244;85;21389;-87
2021/09/04 02:38:23;;;;;;;9.20;5.23;;;;;;;13.65;75.21;100518.44;1423150;86;21286;-87
2021/09/04 02:40:51;;;;;;;10.23;4.93;;;;;;;13.50;75.20;100528.91;1423227;86;22365;-87
2021/09/04 02:43:18;;;;;;;5.77;4.93;;;;;;;13.34;75.15;100530.19;1422999;86;21398;-86
2021/09/04 02:45:45;;;;;;;17.07;7.27;;;;;;;13.26;74.76;100534.16;1423181;86;21288;-86
2021/09/04 02:48:12;;;;;;;6.67;4.57;;;;;;;13.18;74.60;100534.95;1422919;86;22365;-86
2021/09/04 02:50:40;;;;;;;9.77;5.00;;;;;;;13.10;75.26;100533.09;1368570;89;21435;-86
2021/09/04 02:53:07;;;;;;;10.97;5.30;;;;;;;13.06;75.37;100530.91;1387551;88;21442;-90
2021/09/04 02:55:34;;;;;;;7.57;5.27;;;;;;;13.05;75.25;100526.09;1368469;89;22271;-89
2021/09/04 02:58:01;;;;;;;9.03;5.30;;;;;;;13.00;76.02;100524.41;1387967;88;21294;-89
2021/09/04 03:00:29;;;;;;;6.47;4.80;;;;;;;12.95;76.22;100533.38;1369222;89;21310;-88
2021/09/04 03:02:57;;;;;;;12.67;6.53;;;;;;;12.90;77.04;100527.71;1387410;88;21324;-88
2021/09/04 03:05:24;;;;;;;8.73;5.87;;;;;;;12.82;77.11;100527.67;1368859;90;21437;-88
2021/09/04 03:07:51;;;;;;;11.90;5.13;;;;;;;12.82;76.12;100521.03;1387975;88;21278;-86
2021/09/04 03:10:19;;;;;;;9.13;6.27;;;;;;;12.78;78.00;100522.36;1368887;89;21376;-86
2021/09/04 03:12:46;;;;;;;10.10;5.83;;;;;;;12.75;77.04;100517.38;1388034;88;21458;-87
2021/09/04 03:15:13;;;;;;;6.43;5.27;;;;;;;12.75;76.55;100521.36;1368683;89;21443;-86
2021/09/04 03:17:41;;;;;;;8.80;4.77;;;;;;;12.71;77.08;100518.66;1387502;89;21325;-87
2021/09/04 03:20:10;;;;;;;9.13;5.87;;;;;;;12.67;77.00;100519.98;1368785;90;22043;-86
2021/09/04 03:22:37;;;;;;;8.30;5.23;;;;;;;12.64;76.96;100517.14;1387660;88;21515;-87
2021/09/04 03:25:08;;;;;;;8.57;4.93;;;;;;;12.61;77.20;100514.81;1368996;89;22324;-86
2021/09/04 03:27:35;;;;;;;10.65;5.75;;;;;;;12.58;77.01;100504.01;1387619;88;21325;-86
2021/09/04 03:30:03;;;;;;;12.63;6.00;;;;;;;12.50;79.05;100511.10;1368940;90;21376;-86
2021/09/04 03:32:30;;;;;;;9.37;5.33;;;;;;;12.47;78.41;100504.28;1387562;88;22101;-86
2021/09/04 03:34:57;;;;;;;12.27;6.07;;;;;;;12.39;78.88;100499.75;1368886;89;21438;-86
2021/09/04 03:37:25;;;;;;;12.77;5.13;;;;;;;12.40;77.71;100497.95;1398731;88;21580;-87
2021/09/04 03:39:52;;;;;;;10.97;5.10;;;;;;;12.37;78.22;100495.59;1368992;90;21984;-87
2021/09/04 03:42:19;;;;;;;10.30;5.50;;;;;;;12.33;77.95;100499.55;1387702;88;21568;-87
2021/09/04 03:44:46;;;;;;;8.30;5.77;;;;;;;12.28;77.94;100497.86;1368761;90;21280;-86
2021/09/04 03:47:13;;;;;;;14.63;5.33;;;;;;;12.27;77.62;100495.71;1387705;88;21309;-87
2021/09/04 03:49:40;;;;;;;17.10;5.67;;;;;;;12.27;77.91;100489.08;1371153;89;21361;-87
2021/09/04 03:52:07;;;;;;;20.80;6.00;;;;;;;12.31;77.65;100499.70;1384348;88;21429;-87
2021/09/04 03:54:35;;;;;;;6.27;4.23;;;;;;;12.31;77.70;100501.53;1372158;89;21309;-87
2021/09/04 03:57:02;;;;;;;11.43;5.73;;;;;;;12.28;77.79;100500.52;1423098;86;21235;-85
2021/09/04 03:59:29;;;;;;;14.77;5.90;;;;;;;12.26;77.99;100501.19;1423602;85;21301;-88
2021/09/04 04:01:56;;;;;;;11.07;6.13;;;;;;;12.23;78.16;100494.84;1423045;86;21345;-88
2021/09/04 04:04:24;;;;;;;8.57;5.93;;;;;;;12.22;78.40;100504.63;1423265;86;21302;-88
2021/09/04 04:06:51;;;;;;;10.73;5.00;;;;;;;12.20;78.25;100498.66;1423186;85;21427;-88
2021/09/04 04:09:18;;;;;;;7.27;4.63;;;;;;;12.24;77.90;100503.16;1423228;86;21309;-88
2021/09/04 04:11:46;;;;;;;8.10;5.23;;;;;;;12.26;78.16;100502.52;1423219;86;21315;-88
2021/09/04 04:14:13;;;;;;;9.67;4.87;;;;;;;12.22;79.01;100507.78;1423039;85;21250;-89
2021/09/04 04:16:40;;;;;;;8.57;5.30;;;;;;;12.21;78.40;100502.97;1423238;86;21286;-88
2021/09/04 04:19:07;;;;;;;11.10;5.03;;;;;;;12.21;78.28;100509.61;1423031;86;22130;-88
2021/09/04 04:21:36;;;;;;;11.57;5.17;;;;;;;12.19;78.52;100517.70;1423042;86;21405;-88
2021/09/04 04:24:04;;;;;;;7.17;5.00;;;;;;;12.15;79.26;100517.70;1423276;86;21294;-88
2021/09/04 04:26:31;;;;;;;11.43;5.10;;;;;;;12.13;79.67;100520.16;1423095;86;21345;-88
2021/09/04 04:28:58;;;;;;;9.07;5.60;;;;;;;12.13;79.49;100517.01;1423182;86;21286;-87
2021/09/04 04:31:25;;;;;;;10.30;5.60;;;;;;;12.09;79.15;100526.28;1423067;86;21293;-87
2021/09/04 04:33:52;;;;;;;11.67;6.13;;;;;;;12.05;78.98;100522.25;1423237;86;21352;-88
2021/09/04 04:36:19;;;;;;;6.47;5.23;;;;;;;12.09;78.95;100526.28;1423194;86;21302;-88
2021/09/04 04:38:46;;;;;;;10.53;5.77;;;;;;;12.11;78.96;100526.11;1403923;87;21280;-88
2021/09/04 04:41:14;;;;;;;8.57;5.93;;;;;;;12.10;79.11;100521.80;1404942;87;21426;-88
2021/09/04 04:43:41;;;;;;;6.67;5.33;;;;;;;12.10;78.67;100531.91;1423034;86;21331;-88
2021/09/04 04:46:08;;;;;;;9.30;5.47;;;;;;;12.10;79.63;100529.26;1423186;86;21309;-88
2021/09/04 04:48:35;;;;;;;9.27;6.20;;;;;;;12.12;80.13;100529.95;1423659;85;21331;-88
2021/09/04 04:51:02;;;;;;;8.70;5.50;;;;;;;12.16;79.79;100531.29;1422600;86;21386;-88
2021/09/04 04:53:29;;;;;;;10.13;5.60;;;;;;;12.21;79.79;100529.51;1423055;86;21285;-88
2021/09/04 04:55:56;;;;;;;10.60;4.93;;;;;;;12.25;80.01;100526.04;1422618;86;21337;-88
2021/09/04 04:58:23;;;;;;;13.33;5.90;;;;;;;12.30;79.72;100532.55;1422925;86;21294;-88
2021/09/04 05:00:51;;;;;;;7.53;5.07;;;;;;;12.35;79.89;100533.42;1422789;85;21307;-89
2021/09/04 05:03:18;;;;;;;11.70;6.37;;;;;;;12.38;79.76;100533.93;1423020;86;21570;-89
2021/09/04 05:05:46;;;;;;;11.17;6.00;;;;;;;12.43;79.87;100534.80;1422806;86;22240;-89
2021/09/04 05:08:13;;;;;;;8.57;6.07;;;;;;;12.48;80.14;100536.46;1422603;86;22189;-93
2021/09/04 05:10:41;;;;;;;7.63;6.07;;;;;;;12.56;80.10;100535.19;1423113;86;22174;-87
2021/09/04 05:13:08;;;;;;;10.23;5.87;;;;;;;12.65;79.68;100532.91;1422581;86;21473;-89
2021/09/04 05:15:35;;;;;;;9.47;6.10;;;;;;;12.81;79.46;100533.98;1422947;86;21330;-87
2021/09/04 05:18:03;;;;;;;7.97;5.73;;;;;;;12.96;79.45;100532.37;1422731;86;21544;-88
2021/09/04 05:20:30;;;;;;;7.57;6.27;;;;;;;13.11;79.31;100536.58;1416615;86;21393;-89
2021/09/04 05:22:57;;;;;;;12.47;6.40;;;;;;;13.23;78.61;100534.45;1381894;89;22711;-89
2021/09/04 05:25:24;;;;;;;8.67;6.30;;;;;;;13.40;78.27;100538.84;1371024;91;21280;-88
2021/09/04 05:27:52;;;;;;;8.10;6.97;;;;;;;13.52;77.93;100536.23;1371736;89;21295;-88
2021/09/04 05:30:19;;;;;;;8.13;6.70;;;;;;;13.63;77.60;100540.38;1379408;89;21376;-88
2021/09/04 05:32:46;;;;;;;9.17;6.97;;;;;;;13.78;77.27;100533.89;1381307;90;21236;-88
2021/09/04 05:35:13;;;;;;;9.50;7.73;;;;;;;13.86;76.60;100537.06;1375560;87;21331;-88
2021/09/04 05:37:42;;;;;;;13.13;7.00;;;;;;;13.96;76.38;100533.25;1364653;90;21362;-87
2021/09/04 05:40:10;;;;;;;10.03;6.03;;;;;;;14.05;76.10;100537.23;1366179;90;21394;-88
2021/09/04 05:42:37;;;;;;;16.10;7.80;;;;;;;14.18;75.90;100541.53;1371628;89;21324;-87
2021/09/04 05:45:08;;;;;;;12.13;7.73;;;;;;;14.28;75.45;100540.04;1418172;86;21271;-87
2021/09/04 05:47:36;;;;;;;13.20;7.80;;;;;;;14.40;75.39;100539.50;1390795;89;21575;-87
2021/09/04 05:50:04;;;;;;;13.37;7.17;;;;;;;14.54;75.15;100538.02;1391787;89;21390;-87
2021/09/04 05:52:32;;;;;;;8.27;6.67;;;;;;;14.76;75.07;100535.13;1402904;87;22145;-87
2021/09/04 05:54:59;;;;;;;8.60;7.53;;;;;;;14.97;74.52;100541.70;1402824;87;21228;-88
2021/09/04 05:57:26;;;;;;;12.17;7.50;;;;;;;15.17;73.92;100548.27;1402991;87;21583;-87
2021/09/04 05:59:53;;;;;;;15.23;7.57;;;;;;;15.33;73.20;100541.52;1414359;87;21316;-87
2021/09/04 06:02:20;;;;;;;13.20;7.90;;;;;;;15.48;72.52;100538.09;1409900;87;22240;-88
2021/09/04 06:04:47;;;;;;;14.50;7.47;;;;;;;15.62;72.25;100537.81;1406689;87;21460;-88
2021/09/04 06:07:15;;;;;;;12.63;7.63;;;;;;;15.68;71.84;100539.31;1418386;87;22116;-88
2021/09/04 06:09:42;;;;;;;12.60;8.90;;;;;;;15.77;71.68;100534.23;1422812;86;22203;-88
2021/09/04 06:12:09;;;;;;;12.83;8.60;;;;;;;15.89;71.49;100536.48;1422786;86;21419;-88
2021/09/04 06:14:36;;;;;;;10.23;8.17;;;;;;;16.01;71.26;100535.03;1422583;86;21419;-89
2021/09/04 06:17:03;;;;;;;10.73;7.87;;;;;;;16.14;70.90;100537.93;1422682;86;22218;-88
2021/09/04 06:19:31;;;;;;;10.73;9.07;;;;;;;16.34;70.55;100540.05;1422638;86;21256;-89
2021/09/04 06:21:58;;;;;;;12.17;7.90;;;;;;;16.31;69.01;100547.10;1422735;86;21322;-89
2021/09/04 06:24:25;;;;;;;11.23;8.03;;;;;;;16.44;69.51;100548.64;1371384;90;21272;-89
2021/09/04 06:26:52;;;;;;;11.67;9.50;;;;;;;16.55;69.17;100548.20;1379089;88;22330;-90
2021/09/04 06:29:19;;;;;;;13.37;8.60;;;;;;;16.67;69.14;100552.06;1364676;90;21414;-90
2021/09/04 06:31:46;;;;;;;19.53;8.93;;;;;;;16.79;68.73;100544.95;1364650;90;21273;-90
2021/09/04 06:34:13;;;;;;;14.40;9.20;;;;;;;16.84;68.27;100547.91;1364604;90;22190;-91
2021/09/04 06:36:40;;;;;;;16.50;8.70;;;;;;;16.97;68.37;100553.91;1365028;90;21355;-90
2021/09/04 06:39:08;;;;;;;10.33;8.03;;;;;;;17.04;67.83;100553.51;1365077;90;21362;-90
2021/09/04 06:41:35;;;;;;;14.43;8.87;;;;;;;17.20;67.88;100556.46;1365327;90;22441;-89
2021/09/04 06:44:02;;;;;;;11.03;8.37;;;;;;;17.32;67.29;100552.27;1365277;90;22249;-89
2021/09/04 06:46:32;;;;;;;16.60;8.73;;;;;;;17.45;67.03;100554.28;1365080;90;21303;-89
2021/09/04 06:48:59;;;;;;;13.17;8.67;;;;;;;17.57;67.03;100551.42;1365166;90;21483;-89
2021/09/04 06:51:27;;;;;;;12.20;8.60;;;;;;;17.67;66.54;100551.95;1365164;90;21443;-89
2021/09/04 06:53:54;;;;;;;11.40;8.33;;;;;;;17.72;65.49;100554.88;1394956;88;21287;-90
2021/09/04 06:56:21;;;;;;;12.93;8.03;;;;;;;17.84;66.03;100558.39;1395328;88;21228;-90
2021/09/04 06:58:48;;;;;;;10.30;8.20;;;;;;;17.97;65.94;100557.19;1394854;88;21294;-90
2021/09/04 07:01:16;;;;;;;11.77;7.23;;;;;;;18.02;65.41;100564.14;1394846;88;22182;-90
2021/09/04 07:03:43;;;;;;;14.30;6.87;;;;;;;18.16;65.37;100561.06;1394869;88;21256;-90
2021/09/04 07:06:10;;;;;;;11.50;7.83;;;;;;;18.32;64.98;100559.41;1395224;88;21228;-90
2021/09/04 07:08:37;;;;;;;9.83;7.17;;;;;;;18.32;64.46;100562.09;1394735;88;22226;-90
2021/09/04 07:11:04;;;;;;;17.37;8.93;;;;;;;18.47;64.49;100566.86;1394987;88;22213;-89
2021/09/04 07:13:32;;;;;;;12.93;8.60;;;;;;;18.59;63.55;100574.36;1394861;88;21286;-88
2021/09/04 07:15:59;;;;;;;14.23;9.53;;;;;;;18.67;63.79;100567.47;1394976;88;22826;-92
2021/09/04 07:18:26;;;;;;;32.48;11.68;;;;;;;18.79;63.65;100572.66;1395046;88;21448;-90
2021/09/04 07:20:54;;;;;;;20.52;11.90;;;;;;;18.91;63.54;100569.72;1406171;88;21372;-90
2021/09/04 07:23:22;;;;;;;14.87;11.00;;;;;;;19.11;63.55;100573.02;1391893;88;21338;-90
2021/09/04 07:25:49;;;;;;;13.55;11.05;;;;;;;19.20;62.69;100578.51;1379232;88;22204;-90
2021/09/04 07:28:16;;;;;;;11.65;9.15;;;;;;;19.24;62.46;100578.41;1374722;89;21468;-91
2021/09/04 07:30:44;;;;;;;18.82;11.03;;;;;;;19.29;62.77;100579.98;1374692;89;21361;-88
2021/09/04 07:33:11;;;;;;;22.13;13.35;;;;;;;19.34;62.56;100578.88;1374808;89;22079;-88
2021/09/04 07:35:38;;;;;;;13.72;10.10;;;;;;;19.32;62.62;100574.21;1374966;90;21376;-88
2021/09/04 07:38:05;;;;;;;12.93;9.35;;;;;;;19.32;61.89;100575.55;1374723;90;21271;-87
2021/09/04 07:40:32;;;;;;;15.55;8.95;;;;;;;19.53;62.35;100577.78;1374950;89;21353;-87
2021/09/04 07:42:59;;;;;;;18.10;10.32;;;;;;;19.73;62.25;100580.02;1374859;88;21449;-88
2021/09/04 07:45:27;;;;;;;14.18;9.23;;;;;;;19.91;62.01;100578.59;1374825;89;21273;-89
2021/09/04 07:47:54;;;;;;;19.27;9.85;;;;;;;20.12;61.29;100587.00;1374886;90;21368;-88
2021/09/04 07:50:21;;;;;;;16.17;10.45;;;;;;;20.29;60.64;100580.18;1384984;87;21397;-88
2021/09/04 07:52:50;;;;;;;12.60;8.63;;;;;;;20.38;60.18;100580.80;1405264;87;22152;-90
2021/09/04 07:55:18;;;;;;;17.30;9.03;;;;;;;20.54;59.70;100583.05;1405093;87;21242;-93
2021/09/04 07:57:45;;;;;;;13.65;10.18;;;;;;;20.68;59.19;100584.69;1355444;90;21690;-88
2021/09/04 08:00:14;;;;;;;11.93;7.87;;;;;;;20.84;58.74;100586.11;1357990;90;22452;-89
2021/09/04 08:02:42;;;;;;;16.05;8.73;;;;;;;20.69;57.08;100587.70;1379832;89;21299;-87
2021/09/04 08:05:10;;;;;;;15.00;8.65;;;;;;;20.88;58.46;100589.20;1374060;90;21297;-87
2021/09/04 08:07:38;;;;;;;14.25;8.15;;;;;;;21.00;58.06;100586.67;1379220;91;22199;-87
2021/09/04 08:10:07;;;;;;;14.28;8.60;;;;;;;21.14;58.23;100593.66;1396646;88;21426;-88
2021/09/04 08:12:35;;;;;;;15.00;9.63;;;;;;;21.33;57.43;100593.28;1393335;88;22135;-87
2021/09/04 08:15:03;;;;;;;12.03;8.05;;;;;;;21.52;57.49;100593.74;1393156;88;22233;-87
2021/09/04 08:17:30;;;;;;;10.78;7.05;;;;;;;21.45;54.27;100596.97;1375454;90;22307;-89
2021/09/04 08:19:58;;;;;;;8.30;6.42;;;;;;;21.47;56.10;100594.91;1387121;88;21318;-87
2021/09/04 08:22:25;;;;;;;10.45;6.75;;;;;;;21.61;55.41;100596.48;1406044;87;21370;-90
2021/09/04 08:24:52;;;;;;;11.28;7.17;;;;;;;21.61;55.41;100596.48;1405742;87;21327;-86
2021/09/04 08:27:19;;;;;;;9.78;6.22;;;;;;;21.66;54.72;100594.47;1395526;88;21229;-86
2021/09/04 08:29:46;;;;;;;13.00;7.47;;;;;;;21.86;55.82;100597.03;1402829;88;22659;-86
2021/09/04 08:32:13;;;;;;;9.93;7.78;;;;;;;22.11;55.27;100587.63;1415423;87;21243;-86
2021/09/04 08:34:40;;;;;;;14.63;5.50;;;;;;;22.30;55.03;100584.52;1415706;87;21274;-86
2021/09/04 08:37:07;;;;;;;7.60;6.37;;;;;;;22.40;54.80;100584.00;1415051;87;21296;-86
2021/09/04 08:39:34;;;;;;;6.85;5.45;;;;;;;22.59;54.26;100575.43;1415646;86;22219;-87
2021/09/04 08:42:20;;;;;;;10.35;6.28;;;;;;;22.73;53.74;100583.16;1415805;86;21318;-85
2021/09/04 08:44:47;;;;;;;7.87;5.87;;;;;;;22.94;53.37;100583.22;1415155;86;21303;-86
2021/09/04 08:47:16;;;;;;;10.30;6.83;;;;;;;23.12;52.61;100585.64;1415872;87;21258;-85
2021/09/04 08:49:44;;;;;;;7.50;6.07;;;;;;;23.25;51.67;100578.73;1415607;87;21399;-86
2021/09/04 08:52:12;;;;;;;8.28;5.05;;;;;;;23.29;51.89;100581.80;1409979;87;21355;-85
2021/09/04 08:54:39;;;;;;;7.30;4.53;;;;;;;23.29;51.31;100579.92;1409648;86;21414;-85
2021/09/04 08:57:06;;;;;;;7.75;4.85;;;;;;;23.30;51.50;100577.50;1409277;86;22176;-85
2021/09/04 08:59:33;;;;;;;5.42;4.70;;;;;;;23.31;50.91;100584.58;1409933;86;21289;-86
2021/09/04 09:02:04;;;;;;;8.38;4.92;;;;;;;23.47;51.31;100579.58;1410985;86;21604;-86
2021/09/04 09:04:33;;;;;;;10.98;4.55;;;;;;;23.49;50.14;100578.30;1416939;86;21272;-86
2021/09/04 09:07:01;;;;;;;7.28;3.98;;;;;;;23.60;50.45;100579.41;1411669;86;21286;-86
2021/09/04 09:09:28;;;;;;;6.55;5.10;;;;;;;23.75;50.26;100581.18;1368112;89;22249;-86
2021/09/04 09:11:57;;;;;;;6.28;4.47;;;;;;;23.92;50.13;100576.47;1387190;88;21502;-86
2021/09/04 09:14:31;;;;;;;5.70;4.20;;;;;;;24.08;48.30;100569.02;1368631;89;22456;-86
2021/09/04 09:17:00;;;;;;;8.75;4.53;;;;;;;24.06;48.70;100572.50;1386987;88;21229;-86
2021/09/04 09:19:40;;;;;;;10.55;5.17;;;;;;;24.29;48.96;100570.34;1363900;90;21296;-86
2021/09/04 09:22:15;;;;;;;10.23;5.15;;;;;;;24.47;48.47;100559.95;1343229;92;21348;-86
2021/09/04 09:24:43;;;;;;;13.18;5.37;;;;;;;24.66;48.16;100557.95;1349910;91;21540;-86
2021/09/04 09:27:15;;;;;;;6.37;4.37;;;;;;;24.83;47.43;100566.13;1343318;92;21507;-91
2021/09/04 09:29:51;;;;;;;6.58;4.22;;;;;;;24.97;47.31;100567.52;1363055;90;21315;-96
2021/09/04 09:32:18;;;;;;;11.00;4.60;;;;;;;25.11;46.80;100562.66;1362884;90;21337;-90
2021/09/04 09:34:49;;;;;;;6.35;4.17;;;;;;;25.19;45.47;100561.77;1362832;90;21337;-90
2021/09/04 09:37:15;;;;;;;;;;;;;;;25.21;44.78;100560.20;1365015;90;21411;-90
2021/09/04 09:39:44;;;;;;;6.47;3.70;;;;;;;25.21;43.74;100562.36;1363016;89;20298;-90
2021/09/04 09:42:13;;;;;;;9.35;4.95;;;;;;;25.23;44.89;100566.17;1363819;90;21486;-89
2021/09/04 09:44:42;;;;;;;19.37;5.60;;;;;;;25.31;45.04;100564.97;1364020;90;22244;-89
2021/09/04 09:47:12;;;;;;;13.28;5.33;;;;;;;25.26;44.62;100560.80;1362833;90;21548;-90
2021/09/04 09:49:42;;;;;;;8.15;5.55;;;;;;;25.30;44.66;100559.27;1362804;90;21619;-90
2021/09/04 09:52:14;;;;;;;9.18;4.60;;;;;;;25.13;41.71;100550.52;1345973;92;21468;-90
2021/09/04 09:54:45;;;;;;;4.90;4.40;;;;;;;25.25;44.19;100545.63;1356808;91;22259;-89
2021/09/04 09:57:13;;;;;;;7.08;4.00;;;;;;;25.29;43.88;100545.42;1364337;90;21340;-91
2021/09/04 09:59:45;;;;;;;7.45;4.85;;;;;;;25.30;43.90;100541.13;1366105;90;21302;-90
2021/09/04 10:02:16;;;;;;;8.25;4.55;;;;;;;25.36;44.55;100540.70;1366024;90;22263;-90
2021/09/04 10:04:47;;;;;;;8.38;4.40;;;;;;;25.22;40.83;100540.16;1374888;90;21330;-91
2021/09/04 10:07:16;;;;;;;9.63;4.45;;;;;;;25.27;43.33;100538.09;1365262;90;21288;-89
2021/09/04 10:09:44;;;;;;;6.37;4.17;;;;;;;25.17;43.21;100531.39;1365907;90;21318;-88
2021/09/04 10:12:12;;;;;;;11.22;4.40;;;;;;;25.39;43.56;100530.73;1365938;90;21535;-90
2021/09/04 10:14:39;;;;;;;7.83;4.00;;;;;;;25.59;43.20;100531.09;1365880;90;21302;-90
2021/09/04 10:17:07;;;;;;;9.63;4.78;;;;;;;25.84;43.63;100530.73;1352432;91;21385;-90
2021/09/04 10:19:35;;;;;;;6.10;4.50;;;;;;;26.11;43.36;100530.06;1365117;90;21332;-89
2021/09/04 10:22:07;;;;;;;8.45;3.98;;;;;;;26.02;42.79;100514.74;1369822;90;22213;-90
2021/09/04 10:24:52;;;;;;;7.55;5.05;;;;;;;26.13;43.04;100523.05;1365583;90;21437;-90
2021/09/04 10:27:35;;;;;;;6.72;4.42;;;;;;;25.79;41.36;100523.02;1367957;90;21310;-89
2021/09/04 10:30:34;;;;;;;6.33;5.17;;;;;;;25.82;42.00;100521.17;1413763;86;21428;-89
2021/09/04 10:36:31;;;;;;;9.60;4.92;;;;;;;26.18;42.40;100517.67;1423296;86;21926;-90
2021/09/04 10:39:00;;;;;;;6.62;4.78;;;;;;;26.27;41.71;100514.85;1405687;86;22406;-90
2021/09/04 10:41:33;;;;;;;14.00;4.87;;;;;;;26.31;40.60;100506.48;1405960;87;21332;-90
2021/09/04 10:44:04;;;;;;;8.55;5.10;;;;;;;26.55;40.85;100509.81;1406047;87;21466;-90
2021/09/04 10:46:32;;;;;;;9.00;4.92;;;;;;;26.71;39.80;100512.20;1393301;89;21553;-91
2021/09/04 10:49:03;;;;;;;13.88;4.35;;;;;;;26.82;39.41;100518.59;1393812;87;21480;-90
2021/09/04 10:51:52;;;;;;;5.92;3.90;;;;;;;26.95;39.41;100519.54;1406423;87;22308;-90
2021/09/04 10:55:00;;;;;;;6.00;3.87;;;;;;;26.54;38.69;100516.33;1405714;87;21385;-90
2021/09/04 10:57:45;;;;;;;8.78;4.40;;;;;;;25.77;39.40;100522.44;1405457;87;22735;-89
2021/09/04 11:00:25;;;;;;;10.68;4.50;;;;;;;25.83;39.97;100518.77;1405852;87;21472;-90
2021/09/04 11:02:55;;;;;;;;;;;;;;;25.54;40.44;100521.51;1407785;87;21473;-90
2021/09/04 11:05:41;;;;;;;11.75;4.95;;;;;;;24.82;39.96;100522.55;1406127;87;20851;-91
2021/09/04 11:08:22;;;;;;;34.03;8.28;;;;;;;24.89;42.15;100524.61;1405776;87;21303;-90
2021/09/04 11:11:16;;;;;;;7.62;4.78;;;;;;;25.08;42.22;100527.40;1405448;87;21301;-89
2021/09/04 11:13:50;;;;;;;25.17;8.85;;;;;;;25.54;41.41;100528.28;1406260;87;21263;-89
2021/09/04 11:16:40;;;;;;;62.58;16.48;;;;;;;26.03;40.66;100527.77;1406319;87;21301;-89
2021/09/04 11:19:31;;;;;;;;;;;;;;;26.48;41.33;100524.91;1408036;87;21384;-89
2021/09/04 11:22:06;;;;;;;4.67;3.67;;;;;;;26.87;36.82;100530.30;1405972;87;20222;-89
2021/09/04 11:24:41;;;;;;;27.58;5.05;;;;;;;27.25;39.54;100529.97;1405763;87;21464;-89
2021/09/04 11:27:17;;;;;;;9.53;4.10;;;;;;;27.33;39.02;100528.13;1405985;87;22219;-89
2021/09/04 11:29:53;;;;;;;7.67;4.20;;;;;;;27.30;36.25;100524.56;1406311;87;21294;-90
2021/09/04 11:32:26;;;;;;;6.80;3.77;;;;;;;27.56;37.63;100520.73;1406767;87;21242;-90